createdAt,value
2022-09-22T00:02:06.502Z,100245.78
2022-09-22T00:04:34.756Z,100250.22
2022-09-22T00:07:02.728Z,100253.72
2022-09-22T00:09:29.938Z,100247.41
2022-09-22T00:11:57.020Z,100258.22
2022-09-22T00:14:26.876Z,100262.94
2022-09-22T00:17:01.464Z,100251.50
2022-09-22T00:19:33.237Z,100242.59
2022-09-22T00:22:00.384Z,100249.00
2022-09-22T00:24:29.038Z,100255.84
2022-09-22T00:26:58.650Z,100256.19
2022-09-22T00:29:27.277Z,100250.81
2022-09-22T00:31:56.279Z,100249.97
2022-09-22T00:34:25.427Z,100253.78
2022-09-22T00:36:58.521Z,100247.03
2022-09-22T00:39:27.921Z,100239.44
2022-09-22T00:41:55.227Z,100243.94
2022-09-22T00:44:32.809Z,100241.34
2022-09-22T00:47:18.830Z,100246.44
2022-09-22T00:50:15.737Z,100242.75
2022-09-22T00:52:50.713Z,100239.22
2022-09-22T00:55:29.235Z,100242.47
2022-09-22T00:58:00.149Z,100239.00
2022-09-22T01:00:28.279Z,100231.91
2022-09-22T01:02:58.636Z,100244.53
2022-09-22T01:05:29.308Z,100238.88
2022-09-22T01:07:57.561Z,100241.00
2022-09-22T01:10:26.709Z,100245.56
2022-09-22T01:13:10.122Z,100229.69
2022-09-22T01:16:03.556Z,100222.13
2022-09-22T01:18:53.763Z,100225.97
2022-09-22T01:21:53.730Z,100233.13
2022-09-22T01:24:47.931Z,100224.91
2022-09-22T01:27:20.815Z,100225.56
2022-09-22T01:30:12.175Z,100225.09
2022-09-22T01:32:48.048Z,100219.31
2022-09-22T01:35:34.576Z,100219.94
2022-09-22T01:38:22.279Z,100209.41
2022-09-22T01:41:00.501Z,100214.03
2022-09-22T01:43:48.535Z,100208.22
2022-09-22T01:46:41.389Z,100218.75
2022-09-22T01:49:15.980Z,100209.25
2022-09-22T01:51:53.802Z,100197.19
2022-09-22T01:54:46.217Z,100196.22
2022-09-22T01:57:20.483Z,100196.97
2022-09-22T01:59:55.609Z,100199.72
2022-09-22T02:02:57.463Z,100200.69
2022-09-22T02:05:51.299Z,100196.34
2022-09-22T02:08:49.947Z,100210.94
2022-09-22T02:11:23.713Z,100206.69
2022-09-22T02:13:51.601Z,100207.63
2022-09-22T02:16:22.615Z,100205.97
2022-09-22T02:19:17.064Z,100206.38
2022-09-22T02:21:48.412Z,100212.63
2022-09-22T02:24:34.256Z,100211.16
2022-09-22T02:27:10.733Z,100215.56
2022-09-22T02:29:45.921Z,100208.50
2022-09-22T02:32:17.253Z,100212.63
2022-09-22T02:34:48.017Z,100218.34
2022-09-22T02:37:23.912Z,100221.94
2022-09-22T02:40:29.104Z,100226.78
2022-09-22T02:43:08.211Z,100219.94
2022-09-22T02:45:48.232Z,100210.78
2022-09-22T02:48:29.355Z,100215.41
2022-09-22T02:50:57.587Z,100215.66
2022-09-22T02:53:25.620Z,100221.84
2022-09-22T02:55:52.800Z,100223.56
2022-09-22T02:58:23.842Z,100228.44
2022-09-22T03:00:51.893Z,100226.72
2022-09-22T03:03:19.899Z,100222.22
2022-09-22T03:05:47.992Z,100225.63
2022-09-22T03:08:26.414Z,100236.78
2022-09-22T03:10:54.629Z,100239.34
2022-09-22T03:13:29.814Z,100248.91
2022-09-22T03:15:58.845Z,100241.78
2022-09-22T03:18:27.890Z,100238.09
2022-09-22T03:20:56.040Z,100232.72
2022-09-22T03:23:27.422Z,100230.53
2022-09-22T03:26:03.866Z,100229.28
2022-09-22T03:28:32.950Z,100242.13
2022-09-22T03:31:06.264Z,100237.25
2022-09-22T03:33:33.336Z,100230.72
2022-09-22T03:36:00.235Z,100227.19
2022-09-22T03:38:27.291Z,100235.72
2022-09-22T03:40:55.369Z,100234.56
2022-09-22T03:43:24.913Z,100226.63
2022-09-22T03:46:08.498Z,100228.09
2022-09-22T03:48:35.615Z,100228.28
2022-09-22T03:51:04.738Z,100227.47
2022-09-22T03:53:32.223Z,100228.16
2022-09-22T03:56:11.752Z,100235.94
2022-09-22T03:58:41.283Z,100238.72
2022-09-22T04:01:11.511Z,100225.50
2022-09-22T04:04:07.417Z,100227.16
2022-09-22T04:06:37.071Z,100229.69
2022-09-22T04:09:06.750Z,100219.28
2022-09-22T04:11:36.606Z,100226.19
2022-09-22T04:14:05.132Z,100224.34
2022-09-22T04:16:32.240Z,100221.66
2022-09-22T04:18:59.478Z,100226.75
2022-09-22T04:21:30.854Z,100219.78
2022-09-22T04:23:58.035Z,100230.22
2022-09-22T04:26:25.083Z,100227.38
2022-09-22T04:28:53.127Z,100224.00
2022-09-22T04:31:23.215Z,100221.50
2022-09-22T04:33:50.263Z,100227.47
2022-09-22T04:36:17.449Z,100225.59
2022-09-22T04:38:45.593Z,100228.09
2022-09-22T04:41:12.654Z,100231.47
2022-09-22T04:43:54.805Z,100229.75
2022-09-22T04:46:26.824Z,100232.38
2022-09-22T04:48:54.776Z,100234.06
2022-09-22T04:51:22.000Z,100228.91
2022-09-22T04:53:50.961Z,100233.53
2022-09-22T04:56:19.998Z,100243.91
2022-09-22T04:58:51.001Z,100244.66
2022-09-22T05:01:18.034Z,100246.53
2022-09-22T05:03:45.164Z,100244.03
2022-09-22T05:06:17.966Z,100245.59
2022-09-22T05:08:45.037Z,100247.41
2022-09-22T05:11:12.455Z,100251.88
2022-09-22T05:13:49.543Z,100257.16
2022-09-22T05:16:17.559Z,100250.13
2022-09-22T05:18:46.756Z,100250.06
2022-09-22T05:21:14.910Z,100254.53
2022-09-22T05:23:42.090Z,100258.03
2022-09-22T05:26:10.056Z,100256.38
2022-09-22T05:28:38.152Z,100265.31
2022-09-22T05:31:14.498Z,100266.22
2022-09-22T05:33:42.638Z,100271.47
2022-09-22T05:36:09.621Z,100263.53
2022-09-22T05:38:37.735Z,100268.38
2022-09-22T05:41:08.805Z,100274.41
2022-09-22T05:43:35.854Z,100265.59
2022-09-22T05:46:03.914Z,100262.75
2022-09-22T05:48:37.206Z,100271.53
2022-09-22T05:51:10.009Z,100272.31
2022-09-22T05:53:38.250Z,100267.72
2022-09-22T05:56:06.420Z,100273.66
2022-09-22T05:58:33.402Z,100280.53
2022-09-22T06:01:01.407Z,100279.69
2022-09-22T06:03:31.542Z,100290.84
2022-09-22T06:05:58.712Z,100288.13
2022-09-22T06:08:26.929Z,100280.78
2022-09-22T06:10:54.933Z,100292.91
2022-09-22T06:13:21.986Z,100288.53
2022-09-22T06:15:49.414Z,100289.44
2022-09-22T06:18:23.426Z,100289.31
2022-09-22T06:20:51.846Z,100296.31
2022-09-22T06:23:19.349Z,100299.94
2022-09-22T06:25:46.334Z,100306.03
2022-09-22T06:28:16.625Z,100302.25
2022-09-22T06:30:52.154Z,100303.81
2022-09-22T06:33:19.215Z,100301.91
2022-09-22T06:35:46.474Z,100303.56
2022-09-22T06:38:16.570Z,100309.69
2022-09-22T06:40:45.183Z,100296.44
2022-09-22T06:43:23.400Z,100302.56
2022-09-22T06:45:53.261Z,100311.34
2022-09-22T06:48:24.171Z,100304.97
2022-09-22T06:50:53.968Z,100307.22
2022-09-22T06:53:24.573Z,100308.78
2022-09-22T06:55:54.477Z,100307.78
2022-09-22T06:58:23.128Z,100309.25
2022-09-22T07:00:53.997Z,100318.19
2022-09-22T07:03:26.577Z,100317.69
2022-09-22T07:06:01.242Z,100319.81
2022-09-22T07:08:30.504Z,100319.38
2022-09-22T07:11:04.595Z,100317.16
2022-09-22T07:13:33.313Z,100321.00
2022-09-22T07:16:03.523Z,100315.88
2022-09-22T07:18:32.705Z,100322.91
2022-09-22T07:21:08.527Z,100317.34
2022-09-22T07:23:37.618Z,100328.38
2022-09-22T07:26:08.140Z,100330.44
2022-09-22T07:28:41.193Z,100331.94
2022-09-22T07:31:15.002Z,100319.56
2022-09-22T07:33:44.323Z,100327.75
2022-09-22T07:36:14.591Z,100329.19
2022-09-22T07:38:44.565Z,100336.28
2022-09-22T07:41:15.016Z,100332.66
2022-09-22T07:43:43.151Z,100338.63
2022-09-22T07:46:13.468Z,100332.13
2022-09-22T07:48:50.973Z,100333.38
2022-09-22T07:51:22.537Z,100329.88
2022-09-22T07:54:09.830Z,100331.97
2022-09-22T07:56:43.490Z,100329.75
2022-09-22T07:59:13.990Z,100328.69
2022-09-22T08:01:52.574Z,100317.97
2022-09-22T08:04:32.184Z,100325.69
2022-09-22T08:06:59.222Z,100333.16
2022-09-22T08:09:29.947Z,100339.31
2022-09-22T08:11:57.355Z,100328.25
2022-09-22T08:14:24.529Z,100329.59
2022-09-22T08:16:53.896Z,100330.22
2022-09-22T08:19:23.934Z,100334.88
2022-09-22T08:21:54.627Z,100330.66
2022-09-22T08:24:23.316Z,100337.00
2022-09-22T08:26:56.175Z,100338.34
2022-09-22T08:29:24.743Z,100335.88
2022-09-22T08:31:52.019Z,100326.47
2022-09-22T08:34:19.109Z,100341.31
2022-09-22T08:36:52.460Z,100332.13
2022-09-22T08:39:19.760Z,100335.22
2022-09-22T08:42:04.450Z,100335.56
2022-09-22T08:44:46.810Z,100329.72
2022-09-22T08:47:40.421Z,100330.50
2022-09-22T08:50:48.761Z,100337.59
2022-09-22T08:53:23.152Z,100342.66
2022-09-22T08:56:05.508Z,100339.59
2022-09-22T08:58:43.451Z,100339.34
2022-09-22T09:01:39.668Z,100345.53
2022-09-22T09:04:35.634Z,100342.56
2022-09-22T09:07:31.683Z,100340.34
2022-09-22T09:10:35.440Z,100336.00
2022-09-22T09:13:25.069Z,100334.53
2022-09-22T09:16:11.683Z,100328.66
2022-09-22T09:18:44.668Z,100322.78
2022-09-22T09:21:15.290Z,100325.78
2022-09-22T09:26:39.534Z,100322.97
2022-09-22T09:29:21.276Z,100321.16
2022-09-22T09:31:52.962Z,100319.06
2022-09-22T09:34:29.237Z,100323.06
2022-09-22T09:37:08.220Z,100308.72
2022-09-22T09:39:43.300Z,100312.03
2022-09-22T09:42:22.163Z,100316.00
2022-09-22T09:45:02.816Z,100314.72
2022-09-22T09:48:00.141Z,100311.19
2022-09-22T09:50:32.607Z,100309.97
2022-09-22T09:53:28.513Z,100305.84
2022-09-22T09:56:01.805Z,100312.50
2022-09-22T09:58:47.043Z,100312.19
2022-09-22T10:01:24.081Z,100314.72
2022-09-22T10:03:55.163Z,100311.22
2022-09-22T10:06:28.932Z,100310.84
2022-09-22T10:09:01.053Z,100307.72
2022-09-22T10:11:31.362Z,100301.81
2022-09-22T10:13:58.946Z,100310.19
2022-09-22T10:16:36.466Z,100314.59
2022-09-22T10:19:27.951Z,100309.28
2022-09-22T10:22:16.137Z,100309.72
2022-09-22T10:25:04.162Z,100318.47
2022-09-22T10:27:41.435Z,100309.72
2022-09-22T10:30:22.093Z,100314.31
2022-09-22T10:33:11.637Z,100308.75
2022-09-22T10:35:40.773Z,100300.25
2022-09-22T10:38:25.209Z,100299.75
2022-09-22T10:41:14.872Z,100302.03
2022-09-22T10:44:37.588Z,100301.94
2022-09-22T10:47:13.844Z,100296.41
2022-09-22T10:50:05.105Z,100285.63
2022-09-22T10:52:59.155Z,100283.31
2022-09-22T10:55:46.674Z,100282.38
2022-09-22T10:58:56.978Z,100273.16
2022-09-22T11:01:31.963Z,100273.78
2022-09-22T11:04:23.317Z,100273.44
2022-09-22T11:07:49.372Z,100267.97
2022-09-22T11:10:42.768Z,100268.13
2022-09-22T11:13:13.337Z,100274.16
2022-09-22T11:15:45.409Z,100277.56
2022-09-22T11:18:33.623Z,100276.13
2022-09-22T11:21:27.762Z,100261.16
2022-09-22T11:24:30.890Z,100261.81
2022-09-22T11:27:01.815Z,100256.16
2022-09-22T11:29:42.095Z,100249.75
2022-09-22T11:32:50.336Z,100253.03
2022-09-22T11:35:44.928Z,100254.66
2022-09-22T11:38:42.468Z,100246.00
2022-09-22T11:41:29.876Z,100246.09
2022-09-22T11:44:36.587Z,100241.63
2022-09-22T11:47:07.568Z,100244.19
2022-09-22T11:50:30.777Z,100243.88
2022-09-22T11:53:06.078Z,100232.31
2022-09-22T11:56:04.941Z,100232.41
2022-09-22T11:58:33.842Z,100218.56
2022-09-22T12:01:12.325Z,100222.03
2022-09-22T12:03:45.155Z,100224.28
2022-09-22T12:06:18.175Z,100218.16
2022-09-22T12:08:58.495Z,100211.34
2022-09-22T12:11:29.748Z,100225.06
2022-09-22T12:14:00.346Z,100216.59
2022-09-22T12:16:52.749Z,100211.66
2022-09-22T12:19:44.562Z,100211.72
2022-09-22T12:22:18.718Z,100207.56
2022-09-22T12:24:47.509Z,100195.63
2022-09-22T12:27:26.755Z,100201.44
2022-09-22T12:30:01.172Z,100203.63
2022-09-22T12:32:43.346Z,100195.97
2022-09-22T12:35:27.443Z,100196.44
2022-09-22T12:38:02.325Z,100186.09
2022-09-22T12:40:37.482Z,100190.19
2022-09-22T12:43:06.208Z,100187.22
2022-09-22T12:45:41.102Z,100187.00
2022-09-22T12:48:35.820Z,100184.94
2022-09-22T12:51:31.663Z,100192.38
2022-09-22T12:54:23.693Z,100189.25
2022-09-22T12:57:05.074Z,100177.63
2022-09-22T12:59:40.373Z,100190.59
2022-09-22T13:02:16.366Z,100192.06
2022-09-22T13:04:49.280Z,100196.50
2022-09-22T13:07:37.892Z,100198.19
2022-09-22T13:10:25.274Z,100198.28
2022-09-22T13:13:07.171Z,100203.97
2022-09-22T13:15:49.719Z,100197.75
2022-09-22T13:18:45.811Z,100192.38
2022-09-22T13:21:14.808Z,100195.75
2022-09-22T13:24:03.225Z,100199.19
2022-09-22T13:27:02.872Z,100203.44
2022-09-22T13:29:31.301Z,100210.81
2022-09-22T13:32:18.470Z,100208.31
2022-09-22T13:34:49.608Z,100209.19
2022-09-22T13:37:23.774Z,100203.22
2022-09-22T13:39:55.131Z,100205.59
2022-09-22T13:42:31.592Z,100195.19
2022-09-22T13:45:13.967Z,100197.97
2022-09-22T13:47:43.148Z,100205.22
2022-09-22T13:50:22.082Z,100199.97
2022-09-22T13:52:53.065Z,100194.97
2022-09-22T13:55:36.419Z,100197.44
2022-09-22T13:58:06.423Z,100203.09
2022-09-22T14:01:08.762Z,100202.66
2022-09-22T14:03:38.611Z,100203.31
2022-09-22T14:06:12.346Z,100194.06
2022-09-22T14:08:40.727Z,100194.00
2022-09-22T14:11:18.837Z,100191.44
2022-09-22T14:14:07.266Z,100196.22
2022-09-22T14:16:58.041Z,100192.44
2022-09-22T14:19:36.392Z,100184.19
2022-09-22T14:22:24.081Z,100184.94
2022-09-22T14:25:00.920Z,100185.78
2022-09-22T14:27:50.548Z,100188.38
2022-09-22T14:30:20.406Z,100184.44
2022-09-22T14:32:50.650Z,100185.63
2022-09-22T14:35:31.992Z,100187.28
2022-09-22T14:38:10.606Z,100179.97
2022-09-22T14:41:04.662Z,100182.38
2022-09-22T14:43:39.339Z,100181.88
2022-09-22T14:46:31.378Z,100179.47
2022-09-22T14:48:58.571Z,100169.53
2022-09-22T14:51:27.754Z,100175.09
2022-09-22T14:54:01.838Z,100174.03
2022-09-22T14:56:36.898Z,100180.25
2022-09-22T14:59:28.600Z,100168.25
2022-09-22T15:02:15.760Z,100171.78
2022-09-22T15:04:49.729Z,100173.13
2022-09-22T15:07:29.427Z,100167.19
2022-09-22T15:10:02.779Z,100164.81
2022-09-22T15:12:47.362Z,100162.13
2022-09-22T15:15:18.214Z,100158.78
2022-09-22T15:18:06.760Z,100152.56
2022-09-22T15:20:59.943Z,100156.78
2022-09-22T15:23:39.693Z,100151.63
2022-09-22T15:26:24.870Z,100150.88
2022-09-22T15:28:54.558Z,100154.66
2022-09-22T15:31:27.098Z,100158.53
2022-09-22T15:34:03.213Z,100151.88
2022-09-22T15:36:33.685Z,100153.88
2022-09-22T15:39:12.172Z,100147.22
2022-09-22T15:41:39.328Z,100146.78
2022-09-22T15:44:09.087Z,100145.28
2022-09-22T15:46:39.297Z,100155.59
2022-09-22T15:49:21.086Z,100153.22
2022-09-22T15:51:51.781Z,100152.53
2022-09-22T15:54:21.640Z,100156.34
2022-09-22T15:57:01.023Z,100150.09
2022-09-22T15:59:35.358Z,100148.66
2022-09-22T16:02:02.794Z,100148.75
2022-09-22T16:04:34.390Z,100148.50
2022-09-22T16:07:08.624Z,100155.06
2022-09-22T16:09:37.429Z,100146.88
2022-09-22T16:12:08.426Z,100156.78
2022-09-22T16:14:36.942Z,100149.03
2022-09-22T16:17:07.951Z,100151.00
2022-09-22T16:19:35.941Z,100149.19
2022-09-22T16:22:15.149Z,100150.75
2022-09-22T16:24:44.490Z,100148.75
2022-09-22T16:27:12.622Z,100148.69
2022-09-22T16:29:48.158Z,100140.56
2022-09-22T16:32:24.828Z,100151.47
2022-09-22T16:34:54.061Z,100148.41
2022-09-22T16:37:21.557Z,100154.53
2022-09-22T16:39:49.799Z,100150.19
2022-09-22T16:42:23.413Z,100150.66
2022-09-22T16:44:54.034Z,100154.41
2022-09-22T16:47:23.003Z,100146.75
2022-09-22T16:49:54.533Z,100150.84
2022-09-22T16:52:22.775Z,100145.78
2022-09-22T16:54:51.996Z,100145.56
2022-09-22T16:57:22.153Z,100153.78
2022-09-22T16:59:50.642Z,100153.06
2022-09-22T17:02:17.738Z,100149.59
2022-09-22T17:04:56.951Z,100150.84
2022-09-22T17:07:24.583Z,100146.38
2022-09-22T17:09:58.646Z,100157.91
2022-09-22T17:12:29.439Z,100159.84
2022-09-22T17:15:01.515Z,100153.53
2022-09-22T17:17:28.666Z,100160.59
2022-09-22T17:19:55.728Z,100162.38
2022-09-22T17:22:31.965Z,100162.56
2022-09-22T17:25:29.412Z,100155.47
2022-09-22T17:27:57.056Z,100158.84
2022-09-22T17:30:33.289Z,100164.44
2022-09-22T17:33:02.546Z,100164.94
2022-09-22T17:35:30.587Z,100172.13
2022-09-22T17:37:58.750Z,100169.13
2022-09-22T17:40:51.714Z,100173.84
2022-09-22T17:43:23.267Z,100173.72
2022-09-22T17:45:54.309Z,100167.50
2022-09-22T17:48:42.922Z,100171.59
2022-09-22T17:51:50.303Z,100170.88
2022-09-22T17:54:41.669Z,100168.81
2022-09-22T17:57:13.481Z,100166.34
2022-09-22T17:59:41.819Z,100166.63
2022-09-22T18:02:36.802Z,100168.69
2022-09-22T18:05:07.120Z,100173.22
2022-09-22T18:07:36.920Z,100172.06
2022-09-22T18:10:12.583Z,100173.94
2022-09-22T18:12:41.587Z,100171.75
2022-09-22T18:15:17.661Z,100176.09
2022-09-22T18:17:46.719Z,100175.59
2022-09-22T18:20:18.398Z,100184.00
2022-09-22T18:23:10.576Z,100180.69
2022-09-22T18:25:38.719Z,100179.56
2022-09-22T18:28:16.683Z,100180.09
2022-09-22T18:30:45.796Z,100189.75
2022-09-22T18:33:37.013Z,100196.75
2022-09-22T18:36:05.517Z,100189.91
2022-09-22T18:38:49.226Z,100192.03
2022-09-22T18:41:19.680Z,100188.03
2022-09-22T18:43:49.501Z,100189.06
2022-09-22T18:46:20.243Z,100195.75
2022-09-22T18:48:54.174Z,100202.97
2022-09-22T18:51:29.801Z,100202.53
2022-09-22T18:54:01.108Z,100203.28
2022-09-22T18:56:30.671Z,100207.00
2022-09-22T18:58:57.737Z,100196.81
2022-09-22T19:01:35.231Z,100202.69
2022-09-22T19:04:03.936Z,100197.03
2022-09-22T19:06:55.326Z,100198.31
2022-09-22T19:09:28.295Z,100198.59
2022-09-22T19:12:00.097Z,100186.16
2022-09-22T19:14:39.415Z,100195.81
2022-09-22T19:17:09.609Z,100194.81
2022-09-22T19:19:38.133Z,100196.41
2022-09-22T19:22:10.212Z,100192.44
2022-09-22T19:24:46.351Z,100197.66
2022-09-22T19:27:16.533Z,100194.47
2022-09-22T19:29:51.114Z,100197.91
2022-09-22T19:32:19.524Z,100193.84
2022-09-22T19:34:46.784Z,100193.94
2022-09-22T19:37:14.197Z,100198.50
2022-09-22T19:39:42.878Z,100199.78
2022-09-22T19:42:11.009Z,100203.75
2022-09-22T19:44:41.172Z,100197.22
2022-09-22T19:47:21.478Z,100202.53
2022-09-22T19:49:55.232Z,100199.34
2022-09-22T19:52:22.650Z,100206.66
2022-09-22T19:54:50.916Z,100203.34
2022-09-22T19:57:25.148Z,100208.53
2022-09-22T19:59:53.420Z,100207.69
2022-09-22T20:02:21.199Z,100204.69
2022-09-22T20:04:56.103Z,100212.19
2022-09-22T20:07:27.055Z,100214.72
2022-09-22T20:09:56.793Z,100206.16
2022-09-22T20:12:30.068Z,100210.44
2022-09-22T20:14:58.131Z,100207.25
2022-09-22T20:17:26.153Z,100214.38
2022-09-22T20:19:59.117Z,100209.84
2022-09-22T20:22:30.026Z,100204.78
2022-09-22T20:25:01.699Z,100213.53
2022-09-22T20:27:51.150Z,100212.09
2022-09-22T20:30:26.149Z,100215.63
2022-09-22T20:33:05.654Z,100208.41
2022-09-22T20:35:35.918Z,100211.22
2022-09-22T20:38:05.113Z,100211.22
2022-09-22T20:40:35.232Z,100205.47
2022-09-22T20:43:12.708Z,100203.31
2022-09-22T20:45:49.166Z,100216.38
2022-09-22T20:48:18.806Z,100211.09
2022-09-22T20:50:56.083Z,100204.88
2022-09-22T20:53:23.108Z,100197.38
2022-09-22T20:56:10.948Z,100206.69
2022-09-22T20:58:43.595Z,100202.94
2022-09-22T21:01:13.177Z,100206.81
2022-09-22T21:03:41.926Z,100201.28
2022-09-22T21:06:22.758Z,100202.19
2022-09-22T21:09:08.240Z,100201.94
2022-09-22T21:11:37.632Z,100209.41
2022-09-22T21:14:06.886Z,100200.41
2022-09-22T21:16:36.687Z,100206.06
2022-09-22T21:19:16.836Z,100198.59
2022-09-22T21:21:52.034Z,100193.47
2022-09-22T21:24:20.059Z,100206.69
2022-09-22T21:26:47.255Z,100200.75
2022-09-22T21:29:14.278Z,100199.97
2022-09-22T21:31:41.666Z,100203.63
2022-09-22T21:34:20.630Z,100194.06
2022-09-22T21:36:47.765Z,100196.03
2022-09-22T21:39:15.866Z,100199.38
2022-09-22T21:41:50.752Z,100192.56
2022-09-22T21:44:24.874Z,100192.56
2022-09-22T21:46:57.036Z,100197.91
2022-09-22T21:49:24.688Z,100191.75
2022-09-22T21:51:51.760Z,100195.31
2022-09-22T21:54:20.304Z,100196.94
2022-09-22T21:56:50.698Z,100186.00
2022-09-22T21:59:22.139Z,100195.44
2022-09-22T22:01:51.204Z,100188.72
2022-09-22T22:04:18.501Z,100182.75
2022-09-22T22:06:46.982Z,100188.94
2022-09-22T22:09:27.561Z,100191.41
2022-09-22T22:11:59.625Z,100193.19
2022-09-22T22:14:32.287Z,100191.22
2022-09-22T22:17:04.488Z,100182.38
2022-09-22T22:19:34.697Z,100191.84
2022-09-22T22:22:05.633Z,100194.44
2022-09-22T22:24:42.631Z,100192.28
2022-09-22T22:27:27.217Z,100187.84
2022-09-22T22:29:56.331Z,100189.81
2022-09-22T22:32:25.479Z,100187.97
2022-09-22T22:34:53.432Z,100183.72
2022-09-22T22:37:22.418Z,100184.59
2022-09-22T22:39:49.443Z,100186.88
2022-09-22T22:42:18.400Z,100181.81
2022-09-22T22:44:46.542Z,100183.06
2022-09-22T22:47:19.536Z,100181.38
2022-09-22T22:50:06.608Z,100182.00
2022-09-22T22:52:34.576Z,100181.03
2022-09-22T22:55:07.401Z,100178.41
2022-09-22T22:57:35.410Z,100174.31
2022-09-22T23:00:02.828Z,100171.56
2022-09-22T23:02:30.641Z,100176.25
2022-09-22T23:05:09.256Z,100166.47
2022-09-22T23:07:48.292Z,100166.34
2022-09-22T23:10:17.397Z,100166.34
2022-09-22T23:12:47.003Z,100159.38
2022-09-22T23:15:18.253Z,100155.97
2022-09-22T23:17:59.388Z,100166.47
2022-09-22T23:20:30.407Z,100153.50
2022-09-22T23:22:58.540Z,100156.09
2022-09-22T23:25:26.730Z,100154.31
2022-09-22T23:28:02.216Z,100153.44
2022-09-22T23:30:34.807Z,100154.25
2022-09-22T23:33:02.992Z,100144.59
2022-09-22T23:35:30.934Z,100143.78
2022-09-22T23:37:58.099Z,100149.09
2022-09-22T23:40:25.365Z,100143.59
2022-09-22T23:42:52.839Z,100148.91
2022-09-22T23:45:21.785Z,100150.81
2022-09-22T23:47:52.876Z,100146.13
2022-09-22T23:50:30.597Z,100144.50
2022-09-22T23:52:58.856Z,100154.22
2022-09-22T23:55:25.940Z,100150.16
2022-09-22T23:57:52.970Z,100149.63
